EXS85JZ EGBB-ENBR
Flight info
| Callsign | EXS85JZ |
|---|---|
| Flight time | 1h 28m |
| Altitude | 35000 |
| Route | LUVUM DCT TNT N57 POL DCT KEFTE DCT ROBEM DCT BEVAM DCT CUTEL DCT ALOTI DCT ALUVA |
| Aircraft | A321/M-SDE3FGHIRWY/LB1 |
Departure
| Time | 2026-04-27 18:34 |
|---|---|
| Airport | Birmingham Airport (EGBB) |
Arrival
| Time | 2026-04-27 20:03 |
|---|---|
| Airport | Bergen Airport, Flesland (ENBR) |
| Time | Latitude | Longitude | Altitude | Speed | Heading |
|---|---|---|---|---|---|
| 2026-04-27 18:00 | 52.45142 | -1.73438 | 324 ft | 0 kts | 141° |
| 2026-04-27 18:26 | 52.45143 | -1.73439 | 323 ft | 2 kts | 141° |
| 2026-04-27 18:26 | 52.45159 | -1.73460 | 323 ft | 4 kts | 143° |
| 2026-04-27 18:26 | 52.45181 | -1.73479 | 323 ft | 4 kts | 179° |
| 2026-04-27 18:26 | 52.45204 | -1.73467 | 322 ft | 4 kts | 227° |
| 2026-04-27 18:27 | 52.45207 | -1.73462 | 323 ft | 4 kts | 236° |
| 2026-04-27 18:27 | 52.45197 | -1.73487 | 323 ft | 0 kts | 236° |
| 2026-04-27 18:29 | 52.45196 | -1.73489 | 323 ft | 2 kts | 236° |
| 2026-04-27 18:30 | 52.45174 | -1.73542 | 323 ft | 8 kts | 236° |
| 2026-04-27 18:30 | 52.45143 | -1.73619 | 323 ft | 8 kts | 236° |
| 2026-04-27 18:30 | 52.45113 | -1.73690 | 322 ft | 10 kts | 236° |
| 2026-04-27 18:30 | 52.45051 | -1.73743 | 323 ft | 10 kts | 178° |
| 2026-04-27 18:31 | 52.44993 | -1.73700 | 323 ft | 9 kts | 149° |
| 2026-04-27 18:31 | 52.44948 | -1.73650 | 323 ft | 7 kts | 146° |
| 2026-04-27 18:31 | 52.44897 | -1.73650 | 323 ft | 9 kts | 193° |
| 2026-04-27 18:31 | 52.44837 | -1.73679 | 323 ft | 8 kts | 197° |
| 2026-04-27 18:32 | 52.44784 | -1.73705 | 323 ft | 7 kts | 197° |
| 2026-04-27 18:32 | 52.44740 | -1.73734 | 323 ft | 6 kts | 217° |
| 2026-04-27 18:32 | 52.44708 | -1.73804 | 325 ft | 8 kts | 235° |
| 2026-04-27 18:32 | 52.44681 | -1.73867 | 323 ft | 8 kts | 235° |
| 2026-04-27 18:33 | 52.44650 | -1.73937 | 322 ft | 4 kts | 234° |
| 2026-04-27 18:33 | 52.44644 | -1.73976 | 325 ft | 4 kts | 276° |
| 2026-04-27 18:33 | 52.44657 | -1.73999 | 323 ft | 3 kts | 326° |
| 2026-04-27 18:33 | 52.44700 | -1.74043 | 322 ft | 25 kts | 328° |
| 2026-04-27 18:34 | 52.45063 | -1.74442 | 330 ft | 96 kts | 326° |
| 2026-04-27 18:34 | 52.45778 | -1.75245 | 326 ft | 150 kts | 324° |
| 2026-04-27 18:34 | 52.46680 | -1.76260 | 813 ft | 156 kts | 326° |
| 2026-04-27 18:34 | 52.47556 | -1.77253 | 1622 ft | 151 kts | 329° |
| 2026-04-27 18:35 | 52.48410 | -1.78236 | 2250 ft | 150 kts | 331° |
| 2026-04-27 18:35 | 52.49351 | -1.79018 | 2608 ft | 157 kts | 349° |
| 2026-04-27 18:35 | 52.50475 | -1.79055 | 2869 ft | 169 kts | 8° |
| 2026-04-27 18:35 | 52.51690 | -1.78775 | 3120 ft | 185 kts | 8° |
| 2026-04-27 18:36 | 52.52561 | -1.78583 | 3287 ft | 196 kts | 8° |
| 2026-04-27 18:36 | 52.53990 | -1.78276 | 3556 ft | 220 kts | 7° |
| 2026-04-27 18:36 | 52.55579 | -1.77951 | 4005 ft | 236 kts | 7° |
| 2026-04-27 18:36 | 52.57222 | -1.77611 | 4779 ft | 241 kts | 7° |
| 2026-04-27 18:37 | 52.58909 | -1.77265 | 5512 ft | 247 kts | 7° |
| 2026-04-27 18:37 | 52.60636 | -1.76915 | 6219 ft | 253 kts | 6° |
| 2026-04-27 18:37 | 52.62399 | -1.76560 | 6988 ft | 257 kts | 5° |
| 2026-04-27 18:37 | 52.64189 | -1.76199 | 7663 ft | 262 kts | 6° |
| 2026-04-27 18:38 | 52.66016 | -1.75828 | 8399 ft | 265 kts | 6° |
| 2026-04-27 18:38 | 52.67828 | -1.75454 | 9173 ft | 267 kts | 6° |
| 2026-04-27 18:38 | 52.69703 | -1.75068 | 9935 ft | 269 kts | 6° |
| 2026-04-27 18:38 | 52.71554 | -1.74689 | 10530 ft | 277 kts | 6° |
| 2026-04-27 18:39 | 52.73546 | -1.74264 | 10698 ft | 300 kts | 6° |
| 2026-04-27 18:39 | 52.75698 | -1.73785 | 10824 ft | 322 kts | 6° |
| 2026-04-27 18:39 | 52.77989 | -1.73266 | 10960 ft | 343 kts | 7° |
| 2026-04-27 18:39 | 52.80387 | -1.72718 | 11378 ft | 352 kts | 7° |
| 2026-04-27 18:40 | 52.82830 | -1.72157 | 12010 ft | 355 kts | 6° |
| 2026-04-27 18:40 | 52.85285 | -1.71593 | 12681 ft | 357 kts | 6° |
| 2026-04-27 18:40 | 52.87766 | -1.71343 | 13351 ft | 358 kts | 358° |
| 2026-04-27 18:40 | 52.90264 | -1.71389 | 14022 ft | 360 kts | 358° |
| 2026-04-27 18:41 | 52.92784 | -1.71452 | 14612 ft | 362 kts | 358° |
| 2026-04-27 18:41 | 52.95310 | -1.71524 | 15190 ft | 364 kts | 358° |
| 2026-04-27 18:41 | 52.97850 | -1.71602 | 15775 ft | 366 kts | 358° |
| 2026-04-27 18:41 | 53.00394 | -1.71675 | 16342 ft | 367 kts | 358° |
| 2026-04-27 18:42 | 53.02958 | -1.71744 | 16906 ft | 369 kts | 358° |
| 2026-04-27 18:42 | 53.04664 | -1.71786 | 17284 ft | 370 kts | 358° |
| 2026-04-27 18:42 | 53.08088 | -1.71869 | 18033 ft | 372 kts | 358° |
| 2026-04-27 18:42 | 53.10715 | -1.71933 | 18596 ft | 374 kts | 358° |
| 2026-04-27 18:43 | 53.13285 | -1.72000 | 19087 ft | 375 kts | 358° |
| 2026-04-27 18:43 | 53.15892 | -1.72070 | 19609 ft | 375 kts | 358° |
| 2026-04-27 18:43 | 53.18494 | -1.72137 | 20145 ft | 374 kts | 358° |
| 2026-04-27 18:43 | 53.21103 | -1.72201 | 20691 ft | 374 kts | 358° |
| 2026-04-27 18:44 | 53.23702 | -1.72266 | 21244 ft | 374 kts | 358° |
| 2026-04-27 18:44 | 53.26304 | -1.72337 | 21797 ft | 373 kts | 358° |
| 2026-04-27 18:44 | 53.28902 | -1.72408 | 22344 ft | 373 kts | 358° |
| 2026-04-27 18:44 | 53.31498 | -1.72475 | 22871 ft | 372 kts | 358° |
| 2026-04-27 18:45 | 53.34086 | -1.72539 | 23405 ft | 373 kts | 358° |
| 2026-04-27 18:45 | 53.36679 | -1.72604 | 23902 ft | 373 kts | 358° |
| 2026-04-27 18:45 | 53.39282 | -1.72669 | 24303 ft | 374 kts | 358° |
| 2026-04-27 18:45 | 53.41891 | -1.72737 | 24639 ft | 376 kts | 358° |
| 2026-04-27 18:46 | 53.44475 | -1.72804 | 24979 ft | 377 kts | 358° |
| 2026-04-27 18:46 | 53.47108 | -1.72871 | 25294 ft | 379 kts | 358° |
| 2026-04-27 18:46 | 53.49753 | -1.72938 | 25599 ft | 382 kts | 358° |
| 2026-04-27 18:46 | 53.52420 | -1.73007 | 25903 ft | 384 kts | 358° |
| 2026-04-27 18:47 | 53.55098 | -1.73079 | 26206 ft | 386 kts | 358° |
| 2026-04-27 18:47 | 53.57786 | -1.73148 | 26501 ft | 388 kts | 358° |
| 2026-04-27 18:47 | 53.60500 | -1.73217 | 26802 ft | 391 kts | 358° |
| 2026-04-27 18:47 | 53.63230 | -1.73288 | 27099 ft | 393 kts | 358° |
| 2026-04-27 18:48 | 53.65965 | -1.73359 | 27381 ft | 395 kts | 358° |
| 2026-04-27 18:48 | 53.68713 | -1.73428 | 27728 ft | 395 kts | 358° |
| 2026-04-27 18:48 | 53.71452 | -1.73499 | 28120 ft | 394 kts | 358° |
| 2026-04-27 18:48 | 53.74192 | -1.73572 | 28521 ft | 393 kts | 359° |
| 2026-04-27 18:49 | 53.76932 | -1.73644 | 28943 ft | 391 kts | 359° |
| 2026-04-27 18:49 | 53.79643 | -1.73715 | 29330 ft | 390 kts | 359° |
| 2026-04-27 18:49 | 53.82361 | -1.73787 | 29712 ft | 390 kts | 359° |
| 2026-04-27 18:49 | 53.85074 | -1.73858 | 30087 ft | 389 kts | 359° |
| 2026-04-27 18:50 | 53.87784 | -1.73930 | 30442 ft | 389 kts | 359° |
| 2026-04-27 18:50 | 53.90478 | -1.74005 | 30744 ft | 388 kts | 359° |
| 2026-04-27 18:50 | 53.93190 | -1.74082 | 31037 ft | 388 kts | 359° |
| 2026-04-27 18:50 | 53.95863 | -1.74157 | 31312 ft | 389 kts | 359° |
| 2026-04-27 18:51 | 53.98600 | -1.74229 | 31600 ft | 389 kts | 359° |
| 2026-04-27 18:51 | 54.01277 | -1.74171 | 31876 ft | 389 kts | 4° |
| 2026-04-27 18:51 | 54.03949 | -1.73399 | 32149 ft | 392 kts | 13° |
| 2026-04-27 18:51 | 54.06574 | -1.72128 | 32415 ft | 393 kts | 13° |
| 2026-04-27 18:52 | 54.09205 | -1.70840 | 32690 ft | 393 kts | 13° |
| 2026-04-27 18:52 | 54.11838 | -1.69552 | 32956 ft | 393 kts | 13° |
| 2026-04-27 18:52 | 54.14468 | -1.68268 | 33238 ft | 394 kts | 13° |
| 2026-04-27 18:53 | 54.19743 | -1.65692 | 33774 ft | 395 kts | 13° |
| 2026-04-27 18:53 | 54.22388 | -1.64408 | 34051 ft | 395 kts | 13° |
| 2026-04-27 18:53 | 54.25023 | -1.63126 | 34356 ft | 394 kts | 13° |
| 2026-04-27 18:53 | 54.27654 | -1.61842 | 34633 ft | 393 kts | 13° |
| 2026-04-27 18:54 | 54.30287 | -1.60551 | 34840 ft | 393 kts | 14° |
| 2026-04-27 18:54 | 54.32916 | -1.59256 | 35062 ft | 395 kts | 14° |
| 2026-04-27 18:54 | 54.35563 | -1.57950 | 35180 ft | 397 kts | 14° |
| 2026-04-27 18:54 | 54.38230 | -1.56634 | 35317 ft | 400 kts | 14° |
| 2026-04-27 18:55 | 54.40915 | -1.55310 | 35364 ft | 403 kts | 14° |
| 2026-04-27 18:55 | 54.46326 | -1.52638 | 35348 ft | 405 kts | 14° |
| 2026-04-27 18:56 | 54.51704 | -1.49972 | 35351 ft | 404 kts | 14° |
| 2026-04-27 18:56 | 54.57094 | -1.47289 | 35351 ft | 403 kts | 14° |
| 2026-04-27 18:57 | 54.62490 | -1.44600 | 35364 ft | 403 kts | 14° |
| 2026-04-27 18:57 | 54.67886 | -1.41905 | 35367 ft | 403 kts | 14° |
| 2026-04-27 18:58 | 54.73282 | -1.39209 | 35372 ft | 404 kts | 14° |
| 2026-04-27 18:58 | 54.78668 | -1.36500 | 35381 ft | 404 kts | 15° |
| 2026-04-27 18:59 | 54.84058 | -1.33778 | 35384 ft | 403 kts | 15° |
| 2026-04-27 18:59 | 54.89441 | -1.31053 | 35393 ft | 403 kts | 15° |
| 2026-04-27 19:00 | 54.94822 | -1.28325 | 35392 ft | 402 kts | 15° |
| 2026-04-27 19:00 | 55.00196 | -1.25603 | 35391 ft | 402 kts | 15° |
| 2026-04-27 19:01 | 55.05568 | -1.22870 | 35395 ft | 401 kts | 15° |
| 2026-04-27 19:01 | 55.10936 | -1.20126 | 35395 ft | 401 kts | 15° |
| 2026-04-27 19:02 | 55.16248 | -1.17408 | 35395 ft | 401 kts | 15° |
| 2026-04-27 19:02 | 55.21602 | -1.14661 | 35395 ft | 401 kts | 15° |
| 2026-04-27 19:03 | 55.26968 | -1.11885 | 35389 ft | 400 kts | 15° |
| 2026-04-27 19:03 | 55.32294 | -1.09140 | 35399 ft | 401 kts | 15° |
| 2026-04-27 19:04 | 55.37674 | -1.06350 | 35387 ft | 403 kts | 15° |
| 2026-04-27 19:04 | 55.42857 | -1.02787 | 35380 ft | 406 kts | 30° |
| 2026-04-27 19:04 | 55.45112 | -0.99694 | 35378 ft | 410 kts | 41° |
| 2026-04-27 19:05 | 55.46933 | -0.95867 | 35381 ft | 416 kts | 52° |
| 2026-04-27 19:05 | 55.48291 | -0.91324 | 35379 ft | 424 kts | 63° |
| 2026-04-27 19:05 | 55.49361 | -0.86445 | 35374 ft | 425 kts | 63° |
| 2026-04-27 19:06 | 55.51492 | -0.76683 | 35370 ft | 426 kts | 63° |
| 2026-04-27 19:06 | 55.53620 | -0.66929 | 35378 ft | 426 kts | 63° |
| 2026-04-27 19:07 | 55.55732 | -0.57172 | 35380 ft | 426 kts | 63° |
| 2026-04-27 19:07 | 55.57832 | -0.47432 | 35389 ft | 425 kts | 63° |
| 2026-04-27 19:08 | 55.59944 | -0.37611 | 35389 ft | 425 kts | 63° |
| 2026-04-27 19:08 | 55.62023 | -0.27874 | 35390 ft | 425 kts | 64° |
| 2026-04-27 19:09 | 55.64103 | -0.18064 | 35388 ft | 425 kts | 64° |
| 2026-04-27 19:09 | 55.66173 | -0.08259 | 35393 ft | 425 kts | 64° |
| 2026-04-27 19:10 | 55.68232 | 0.01538 | 35426 ft | 425 kts | 65° |
| 2026-04-27 19:10 | 55.70298 | 0.11414 | 35394 ft | 427 kts | 65° |
| 2026-04-27 19:11 | 55.72341 | 0.21248 | 35386 ft | 428 kts | 65° |
| 2026-04-27 19:11 | 55.73677 | 0.31643 | 35379 ft | 437 kts | 76° |
| 2026-04-27 19:12 | 55.74530 | 0.42313 | 35377 ft | 437 kts | 76° |
| 2026-04-27 19:12 | 55.75381 | 0.53022 | 35380 ft | 438 kts | 76° |
| 2026-04-27 19:13 | 55.76588 | 0.63552 | 35399 ft | 430 kts | 62° |
| 2026-04-27 19:13 | 55.78071 | 0.68089 | 35389 ft | 422 kts | 47° |
| 2026-04-27 19:13 | 55.80142 | 0.71707 | 35387 ft | 416 kts | 34° |
| 2026-04-27 19:14 | 55.84834 | 0.77725 | 35376 ft | 416 kts | 34° |
| 2026-04-27 19:14 | 55.89543 | 0.83758 | 35378 ft | 417 kts | 34° |
| 2026-04-27 19:15 | 55.94251 | 0.89817 | 35392 ft | 417 kts | 34° |
| 2026-04-27 19:15 | 55.98925 | 0.95857 | 35395 ft | 417 kts | 34° |
| 2026-04-27 19:16 | 56.03622 | 1.01943 | 35405 ft | 417 kts | 34° |
| 2026-04-27 19:16 | 56.08323 | 1.08051 | 35402 ft | 417 kts | 34° |
| 2026-04-27 19:17 | 56.13021 | 1.14180 | 35428 ft | 417 kts | 35° |
| 2026-04-27 19:17 | 56.17726 | 1.20330 | 35408 ft | 419 kts | 35° |
| 2026-04-27 19:18 | 56.22441 | 1.26503 | 35388 ft | 420 kts | 34° |
| 2026-04-27 19:18 | 56.27170 | 1.32709 | 35389 ft | 421 kts | 35° |
| 2026-04-27 19:19 | 56.31889 | 1.38944 | 35415 ft | 421 kts | 35° |
| 2026-04-27 19:19 | 56.36598 | 1.45186 | 35414 ft | 420 kts | 35° |
| 2026-04-27 19:20 | 56.41298 | 1.51428 | 35414 ft | 419 kts | 35° |
| 2026-04-27 19:20 | 56.45958 | 1.57658 | 35423 ft | 419 kts | 35° |
| 2026-04-27 19:21 | 56.50642 | 1.63918 | 35425 ft | 419 kts | 35° |
| 2026-04-27 19:21 | 56.55325 | 1.70187 | 35422 ft | 418 kts | 35° |
| 2026-04-27 19:22 | 56.59994 | 1.76469 | 35438 ft | 418 kts | 36° |
| 2026-04-27 19:22 | 56.64664 | 1.82770 | 35440 ft | 418 kts | 36° |
| 2026-04-27 19:23 | 56.69335 | 1.89083 | 35429 ft | 418 kts | 36° |
| 2026-04-27 19:23 | 56.73996 | 1.95408 | 35433 ft | 418 kts | 36° |
| 2026-04-27 19:24 | 56.77867 | 2.00673 | 35426 ft | 418 kts | 36° |
| 2026-04-27 19:24 | 56.82517 | 2.07036 | 35415 ft | 418 kts | 36° |
| 2026-04-27 19:25 | 56.87914 | 2.14443 | 35427 ft | 417 kts | 36° |
| 2026-04-27 19:25 | 56.91770 | 2.19745 | 35428 ft | 416 kts | 36° |
| 2026-04-27 19:26 | 56.96390 | 2.26110 | 35433 ft | 415 kts | 36° |
| 2026-04-27 19:26 | 57.01000 | 2.32481 | 35425 ft | 415 kts | 36° |
| 2026-04-27 19:27 | 57.05614 | 2.38883 | 35433 ft | 415 kts | 36° |
| 2026-04-27 19:27 | 57.10227 | 2.45312 | 35409 ft | 416 kts | 36° |
| 2026-04-27 19:28 | 57.14833 | 2.51744 | 35424 ft | 416 kts | 36° |
| 2026-04-27 19:28 | 57.19448 | 2.58201 | 35426 ft | 416 kts | 36° |
| 2026-04-27 19:29 | 57.24040 | 2.64656 | 35416 ft | 415 kts | 37° |
| 2026-04-27 19:29 | 57.28632 | 2.71142 | 35411 ft | 415 kts | 37° |
| 2026-04-27 19:30 | 57.33211 | 2.77619 | 35412 ft | 415 kts | 37° |
| 2026-04-27 19:30 | 57.37769 | 2.84091 | 35404 ft | 414 kts | 37° |
| 2026-04-27 19:31 | 57.42337 | 2.90588 | 35428 ft | 413 kts | 37° |
| 2026-04-27 19:31 | 57.46892 | 2.97096 | 35434 ft | 413 kts | 37° |
| 2026-04-27 19:32 | 57.51436 | 3.03603 | 35441 ft | 413 kts | 37° |
| 2026-04-27 19:32 | 57.55970 | 3.10103 | 35435 ft | 414 kts | 37° |
| 2026-04-27 19:33 | 57.60533 | 3.16670 | 35423 ft | 415 kts | 37° |
| 2026-04-27 19:33 | 57.65091 | 3.23271 | 35415 ft | 415 kts | 37° |
| 2026-04-27 19:34 | 57.69641 | 3.29878 | 35430 ft | 414 kts | 37° |
| 2026-04-27 19:34 | 57.74194 | 3.36514 | 35440 ft | 414 kts | 37° |
| 2026-04-27 19:35 | 57.78734 | 3.43162 | 35427 ft | 414 kts | 37° |
| 2026-04-27 19:35 | 57.83272 | 3.49828 | 35431 ft | 414 kts | 37° |
| 2026-04-27 19:36 | 57.87782 | 3.56455 | 35426 ft | 414 kts | 37° |
| 2026-04-27 19:36 | 57.92558 | 3.62430 | 35437 ft | 412 kts | 24° |
| 2026-04-27 19:37 | 57.97761 | 3.66968 | 35460 ft | 412 kts | 25° |
| 2026-04-27 19:37 | 58.02965 | 3.71545 | 35435 ft | 413 kts | 25° |
| 2026-04-27 19:38 | 58.08177 | 3.76159 | 35434 ft | 414 kts | 25° |
| 2026-04-27 19:38 | 58.13393 | 3.80784 | 35433 ft | 414 kts | 25° |
| 2026-04-27 19:39 | 58.18613 | 3.85420 | 35429 ft | 414 kts | 25° |
| 2026-04-27 19:39 | 58.23824 | 3.90072 | 35443 ft | 414 kts | 25° |
| 2026-04-27 19:40 | 58.29024 | 3.94729 | 35440 ft | 413 kts | 25° |
| 2026-04-27 19:40 | 58.34195 | 3.99370 | 35438 ft | 413 kts | 25° |
| 2026-04-27 19:41 | 58.39394 | 4.04044 | 35435 ft | 413 kts | 25° |
| 2026-04-27 19:41 | 58.44581 | 4.08727 | 35441 ft | 412 kts | 24° |
| 2026-04-27 19:42 | 58.49764 | 4.13423 | 35448 ft | 412 kts | 24° |
| 2026-04-27 19:42 | 58.54946 | 4.18137 | 35451 ft | 412 kts | 24° |
| 2026-04-27 19:43 | 58.60109 | 4.22862 | 35452 ft | 411 kts | 24° |
| 2026-04-27 19:43 | 58.65416 | 4.26767 | 35449 ft | 410 kts | 19° |
| 2026-04-27 19:44 | 58.70812 | 4.30328 | 35444 ft | 410 kts | 18° |
| 2026-04-27 19:44 | 58.73523 | 4.32104 | 35015 ft | 413 kts | 18° |
| 2026-04-27 19:44 | 58.76256 | 4.33908 | 34163 ft | 417 kts | 19° |
| 2026-04-27 19:44 | 58.79001 | 4.35735 | 33353 ft | 417 kts | 19° |
| 2026-04-27 19:45 | 58.81750 | 4.37576 | 32565 ft | 417 kts | 19° |
| 2026-04-27 19:45 | 58.84493 | 4.39421 | 31735 ft | 419 kts | 19° |
| 2026-04-27 19:45 | 58.87256 | 4.41287 | 30933 ft | 420 kts | 20° |
| 2026-04-27 19:45 | 58.90024 | 4.43161 | 29997 ft | 423 kts | 20° |
| 2026-04-27 19:46 | 58.92810 | 4.45047 | 29066 ft | 425 kts | 20° |
| 2026-04-27 19:46 | 58.95604 | 4.46941 | 28139 ft | 427 kts | 19° |
| 2026-04-27 19:46 | 58.98412 | 4.48843 | 27189 ft | 429 kts | 19° |
| 2026-04-27 19:46 | 59.01250 | 4.50764 | 26156 ft | 434 kts | 19° |
| 2026-04-27 19:47 | 59.04119 | 4.52714 | 25117 ft | 438 kts | 19° |
| 2026-04-27 19:47 | 59.07009 | 4.54689 | 24177 ft | 441 kts | 19° |
| 2026-04-27 19:47 | 59.09903 | 4.56672 | 23261 ft | 440 kts | 19° |
| 2026-04-27 19:47 | 59.12765 | 4.58633 | 22535 ft | 433 kts | 19° |
| 2026-04-27 19:48 | 59.15553 | 4.60547 | 21836 ft | 427 kts | 19° |
| 2026-04-27 19:48 | 59.18344 | 4.62465 | 21079 ft | 423 kts | 19° |
| 2026-04-27 19:48 | 59.21096 | 4.64360 | 20462 ft | 416 kts | 19° |
| 2026-04-27 19:48 | 59.23809 | 4.66230 | 19772 ft | 412 kts | 19° |
| 2026-04-27 19:49 | 59.26503 | 4.68089 | 19121 ft | 408 kts | 19° |
| 2026-04-27 19:49 | 59.29166 | 4.69928 | 18441 ft | 404 kts | 19° |
| 2026-04-27 19:49 | 59.31795 | 4.71747 | 17798 ft | 398 kts | 19° |
| 2026-04-27 19:49 | 59.34390 | 4.73552 | 17197 ft | 392 kts | 19° |
| 2026-04-27 19:50 | 59.36942 | 4.75332 | 16605 ft | 387 kts | 19° |
| 2026-04-27 19:50 | 59.39463 | 4.77094 | 16040 ft | 382 kts | 19° |
| 2026-04-27 19:50 | 59.41947 | 4.78829 | 15488 ft | 377 kts | 19° |
| 2026-04-27 19:50 | 59.44406 | 4.80546 | 14950 ft | 373 kts | 19° |
| 2026-04-27 19:51 | 59.46837 | 4.82245 | 14438 ft | 370 kts | 20° |
| 2026-04-27 19:51 | 59.49253 | 4.83936 | 13892 ft | 367 kts | 20° |
| 2026-04-27 19:51 | 59.51652 | 4.85614 | 13389 ft | 364 kts | 19° |
| 2026-04-27 19:51 | 59.54034 | 4.87283 | 12886 ft | 362 kts | 19° |
| 2026-04-27 19:52 | 59.56399 | 4.88943 | 12379 ft | 360 kts | 19° |
| 2026-04-27 19:52 | 59.58747 | 4.90594 | 11876 ft | 357 kts | 19° |
| 2026-04-27 19:52 | 59.61061 | 4.92226 | 11619 ft | 346 kts | 19° |
| 2026-04-27 19:52 | 59.63282 | 4.93799 | 11464 ft | 334 kts | 19° |
| 2026-04-27 19:53 | 59.67711 | 4.96943 | 11286 ft | 342 kts | 19° |
| 2026-04-27 19:53 | 59.69945 | 4.98531 | 11133 ft | 341 kts | 19° |
| 2026-04-27 19:53 | 59.72213 | 5.00142 | 10980 ft | 341 kts | 19° |
| 2026-04-27 19:54 | 59.74406 | 5.01697 | 10830 ft | 340 kts | 19° |
| 2026-04-27 19:54 | 59.76632 | 5.03277 | 10680 ft | 339 kts | 19° |
| 2026-04-27 19:54 | 59.78854 | 5.04863 | 10532 ft | 337 kts | 20° |
| 2026-04-27 19:54 | 59.81012 | 5.06410 | 10402 ft | 323 kts | 19° |
| 2026-04-27 19:55 | 59.83091 | 5.07898 | 10274 ft | 310 kts | 19° |
| 2026-04-27 19:55 | 59.85093 | 5.09331 | 9983 ft | 303 kts | 20° |
| 2026-04-27 19:55 | 59.87056 | 5.10739 | 9668 ft | 297 kts | 20° |
| 2026-04-27 19:55 | 59.88970 | 5.12115 | 9442 ft | 285 kts | 20° |
| 2026-04-27 19:56 | 59.90798 | 5.13431 | 9062 ft | 275 kts | 20° |
| 2026-04-27 19:56 | 59.92587 | 5.14722 | 8539 ft | 271 kts | 20° |
| 2026-04-27 19:56 | 59.94354 | 5.15999 | 7991 ft | 269 kts | 20° |
| 2026-04-27 19:56 | 59.96103 | 5.17267 | 7450 ft | 266 kts | 20° |
| 2026-04-27 19:57 | 59.97836 | 5.18525 | 6916 ft | 264 kts | 19° |
| 2026-04-27 19:57 | 59.99563 | 5.19774 | 6332 ft | 262 kts | 20° |
| 2026-04-27 19:57 | 60.01273 | 5.21013 | 5779 ft | 260 kts | 20° |
| 2026-04-27 19:57 | 60.02973 | 5.22244 | 5129 ft | 262 kts | 21° |
| 2026-04-27 19:58 | 60.04698 | 5.23497 | 4419 ft | 265 kts | 21° |
| 2026-04-27 19:58 | 60.06418 | 5.24747 | 3928 ft | 260 kts | 21° |
| 2026-04-27 19:58 | 60.08106 | 5.25977 | 3591 ft | 256 kts | 21° |
| 2026-04-27 19:58 | 60.09756 | 5.27180 | 3360 ft | 249 kts | 19° |
| 2026-04-27 19:59 | 60.11416 | 5.27740 | 3229 ft | 238 kts | 356° |
| 2026-04-27 19:59 | 60.13023 | 5.27274 | 3123 ft | 228 kts | 350° |
| 2026-04-27 19:59 | 60.14521 | 5.26766 | 2969 ft | 217 kts | 350° |
| 2026-04-27 19:59 | 60.16017 | 5.26267 | 2690 ft | 213 kts | 351° |
| 2026-04-27 20:00 | 60.17465 | 5.25803 | 2439 ft | 207 kts | 351° |
| 2026-04-27 20:00 | 60.18853 | 5.25354 | 2099 ft | 199 kts | 351° |
| 2026-04-27 20:00 | 60.20159 | 5.24877 | 1845 ft | 185 kts | 348° |
| 2026-04-27 20:00 | 60.21357 | 5.24412 | 1660 ft | 168 kts | 349° |
| 2026-04-27 20:01 | 60.22483 | 5.24041 | 1384 ft | 161 kts | 351° |
| 2026-04-27 20:01 | 60.23539 | 5.23717 | 1200 ft | 147 kts | 351° |
| 2026-04-27 20:01 | 60.24508 | 5.23421 | 970 ft | 137 kts | 351° |
| 2026-04-27 20:01 | 60.25451 | 5.23107 | 795 ft | 138 kts | 350° |
| 2026-04-27 20:02 | 60.26389 | 5.22772 | 618 ft | 135 kts | 349° |
| 2026-04-27 20:02 | 60.27321 | 5.22468 | 417 ft | 135 kts | 349° |
| 2026-04-27 20:02 | 60.28232 | 5.22176 | 206 ft | 131 kts | 350° |
| 2026-04-27 20:02 | 60.29066 | 5.21907 | 162 ft | 104 kts | 351° |
| 2026-04-27 20:03 | 60.29595 | 5.21728 | 147 ft | 52 kts | 349° |
| 2026-04-27 20:03 | 60.29867 | 5.21632 | 151 ft | 25 kts | 351° |
| 2026-04-27 20:03 | 60.30005 | 5.21593 | 158 ft | 12 kts | 357° |
| 2026-04-27 20:03 | 60.30037 | 5.21698 | 159 ft | 9 kts | 81° |
| 2026-04-27 20:04 | 60.30044 | 5.21793 | 160 ft | 6 kts | 81° |
| 2026-04-27 20:04 | 60.30041 | 5.21885 | 160 ft | 7 kts | 128° |
| 2026-04-27 20:04 | 60.29993 | 5.21917 | 158 ft | 8 kts | 169° |
| 2026-04-27 20:04 | 60.29948 | 5.21932 | 156 ft | 13 kts | 171° |
| 2026-04-27 20:05 | 60.29798 | 5.21981 | 150 ft | 18 kts | 170° |
| 2026-04-27 20:05 | 60.29675 | 5.22025 | 151 ft | 17 kts | 170° |
| 2026-04-27 20:05 | 60.29570 | 5.22061 | 154 ft | 15 kts | 171° |
| 2026-04-27 20:05 | 60.29443 | 5.22104 | 159 ft | 21 kts | 170° |
| 2026-04-27 20:06 | 60.29308 | 5.22149 | 164 ft | 18 kts | 171° |
| 2026-04-27 20:06 | 60.29166 | 5.22197 | 171 ft | 23 kts | 170° |
| 2026-04-27 20:06 | 60.29036 | 5.22240 | 174 ft | 18 kts | 171° |
| 2026-04-27 20:06 | 60.28915 | 5.22279 | 171 ft | 16 kts | 171° |
| 2026-04-27 20:07 | 60.28831 | 5.22309 | 170 ft | 9 kts | 168° |
| 2026-04-27 20:07 | 60.28808 | 5.22369 | 173 ft | 2 kts | 90° |
| 2026-04-27 20:07 | 60.28820 | 5.22417 | 174 ft | 6 kts | 58° |
| 2026-04-27 20:07 | 60.28837 | 5.22473 | 175 ft | 5 kts | 60° |
| 2026-04-27 20:08 | 60.28853 | 5.22533 | 175 ft | 4 kts | 60° |
| 2026-04-27 20:08 | 60.28860 | 5.22556 | 175 ft | 1 kts | 60° |
| 2026-04-27 20:08 | 60.28860 | 5.22557 | 175 ft | 0 kts | 60° |